Time;durP1;ratioP1;P1;durP2;ratioP2;P2;SDS_P1;SDS_P2;PMS_P1;PMS_P2;Temp;Humidity;BMP_temperature;BMP_pressure;BME280_temperature;BME280_humidity;BME280_pressure;Samples;Min_cycle;Max_cycle;Signal;HPM_P1;HPM_P2
2022/05/21 00:00:27;;;;;;;8.07;5.20;;;;;;;;;;5074415;28;20887;-58
2022/05/21 00:02:53;;;;;;;6.77;4.47;;;;;;;;;;5073979;28;20412;-56
2022/05/21 00:05:21;;;;;;;6.53;4.03;;;;;;;;;;5073134;28;20411;-57
2022/05/21 00:07:47;;;;;;;8.00;4.40;;;;;;;;;;5074450;28;20456;-58
2022/05/21 00:10:13;;;;;;;7.20;4.90;;;;;;;;;;5074045;28;20406;-59
2022/05/21 00:12:39;;;;;;;5.83;5.23;;;;;;;;;;5073790;28;20401;-57
2022/05/21 00:15:06;;;;;;;10.80;7.67;;;;;;;;;;5074254;28;20570;-57
2022/05/21 00:17:33;;;;;;;11.37;6.47;;;;;;;;;;5074194;28;20542;-56
2022/05/21 00:20:00;;;;;;;7.80;6.23;;;;;;;;;;5074140;28;20784;-59
2022/05/21 00:22:26;;;;;;;10.90;6.70;;;;;;;;;;5073563;28;20812;-56
2022/05/21 00:24:52;;;;;;;7.87;7.10;;;;;;;;;;5074142;28;20436;-58
2022/05/21 00:27:18;;;;;;;15.43;7.17;;;;;;;;;;5074002;28;20470;-58
2022/05/21 00:29:44;;;;;;;11.37;7.20;;;;;;;;;;5073950;28;20568;-56
2022/05/21 00:32:10;;;;;;;12.07;8.20;;;;;;;;;;5073379;28;20456;-57
2022/05/21 00:34:36;;;;;;;12.83;7.63;;;;;;;;;;5073839;28;20512;-57
2022/05/21 00:37:02;;;;;;;12.37;8.13;;;;;;;;;;5073956;28;20492;-57
2022/05/21 00:39:29;;;;;;;17.13;6.70;;;;;;;;;;5073809;28;20937;-58
2022/05/21 00:41:55;;;;;;;16.70;7.77;;;;;;;;;;5073233;28;20868;-57
2022/05/21 00:44:21;;;;;;;15.60;9.07;;;;;;;;;;5073853;28;20425;-58
2022/05/21 00:46:48;;;;;;;12.73;7.77;;;;;;;;;;5073899;28;20437;-56
2022/05/21 00:49:44;;;;;;;15.00;9.40;;;;;;;;;;5073553;28;20401;-58
2022/05/21 00:52:18;;;;;;;11.73;8.40;;;;;;;;;;5072235;28;20844;-58
2022/05/21 00:55:04;;;;;;;13.27;8.90;;;;;;;;;;5073477;28;20427;-59
2022/05/21 00:57:30;;;;;;;16.47;9.90;;;;;;;;;;5072817;28;20786;-58
2022/05/21 01:00:01;;;;;;;13.70;9.73;;;;;;;;;;5073411;28;20454;-57
2022/05/21 01:02:29;;;;;;;12.00;9.30;;;;;;;;;;5071871;28;20486;-58
2022/05/21 01:04:59;;;;;;;15.03;9.53;;;;;;;;;;5072430;28;20810;-58
2022/05/21 01:07:25;;;;;;;13.97;9.97;;;;;;;;;;5072930;28;20453;-58
2022/05/21 01:09:55;;;;;;;14.10;9.43;;;;;;;;;;5072714;28;20401;-58
2022/05/21 01:12:23;;;;;;;20.50;10.50;;;;;;;;;;5073482;28;20397;-58
2022/05/21 01:14:51;;;;;;;22.50;10.17;;;;;;;;;;5072988;28;20482;-58
2022/05/21 01:17:19;;;;;;;12.93;8.70;;;;;;;;;;5073059;28;20414;-56
2022/05/21 01:19:56;;;;;;;14.67;10.10;;;;;;;;;;5072640;28;20409;-57
2022/05/21 01:22:45;;;;;;;15.17;9.77;;;;;;;;;;5072225;28;20509;-56
2022/05/21 01:25:12;;;;;;;18.37;9.43;;;;;;;;;;5072265;28;20428;-58
2022/05/21 01:27:38;;;;;;;14.20;9.70;;;;;;;;;;5072810;28;20453;-56
2022/05/21 01:30:06;;;;;;;11.60;8.63;;;;;;;;;;5072647;28;20507;-56
2022/05/21 01:32:33;;;;;;;12.53;9.20;;;;;;;;;;5072143;28;20403;-58
2022/05/21 01:34:59;;;;;;;11.23;9.30;;;;;;;;;;5072558;28;20510;-57
2022/05/21 01:37:25;;;;;;;12.57;8.60;;;;;;;;;;5072496;28;20409;-57
2022/05/21 01:39:51;;;;;;;12.57;8.43;;;;;;;;;;5072537;28;20404;-56
2022/05/21 01:42:17;;;;;;;11.30;8.00;;;;;;;;;;5072012;28;20402;-57
2022/05/21 01:44:45;;;;;;;12.27;8.53;;;;;;;;;;5072670;28;20742;-56
2022/05/21 01:47:14;;;;;;;12.60;8.93;;;;;;;;;;5072404;28;20452;-56
2022/05/21 01:49:41;;;;;;;12.87;9.43;;;;;;;;;;5072369;28;20409;-57
2022/05/21 01:52:07;;;;;;;18.53;9.10;;;;;;;;;;5071713;28;20413;-57
2022/05/21 01:54:34;;;;;;;19.23;8.87;;;;;;;;;;5072235;28;20424;-57
2022/05/21 01:57:00;;;;;;;13.60;7.77;;;;;;;;;;5072343;28;20398;-56
2022/05/21 01:59:27;;;;;;;9.77;8.00;;;;;;;;;;5072239;28;20897;-58
2022/05/21 02:01:53;;;;;;;9.50;7.87;;;;;;;;;;5071628;28;20408;-58
2022/05/21 02:04:19;;;;;;;11.20;7.80;;;;;;;;;;5072132;28;20512;-59
2022/05/21 02:06:46;;;;;;;14.00;8.23;;;;;;;;;;5072075;28;20419;-57
2022/05/21 02:09:12;;;;;;;9.33;7.20;;;;;;;;;;5072118;28;20415;-58
2022/05/21 02:11:38;;;;;;;16.87;7.27;;;;;;;;;;5071434;28;20376;-59
2022/05/21 02:14:04;;;;;;;10.50;7.00;;;;;;;;;;5072033;28;20444;-57
2022/05/21 02:16:30;;;;;;;9.03;6.50;;;;;;;;;;5072008;28;20411;-58
2022/05/21 02:18:57;;;;;;;9.80;6.57;;;;;;;;;;5071978;28;20397;-57
2022/05/21 02:21:23;;;;;;;8.47;6.90;;;;;;;;;;5071405;28;20750;-56
2022/05/21 02:23:49;;;;;;;8.67;6.40;;;;;;;;;;5071897;28;20420;-56
2022/05/21 02:26:17;;;;;;;6.20;5.50;;;;;;;;;;5071926;28;20402;-58
2022/05/21 02:28:43;;;;;;;8.70;6.17;;;;;;;;;;5071972;28;20396;-59
2022/05/21 02:31:09;;;;;;;6.53;5.77;;;;;;;;;;5071209;28;20412;-60
2022/05/21 02:33:35;;;;;;;6.97;5.03;;;;;;;;;;5071538;28;21221;-57
2022/05/21 02:36:01;;;;;;;11.83;5.80;;;;;;;;;;5071919;28;20396;-57
2022/05/21 02:41:13;;;;;;;7.93;5.30;;;;;;;;;;5071243;28;20449;-59
2022/05/21 02:43:40;;;;;;;7.03;4.53;;;;;;;;;;5070857;28;20941;-58
2022/05/21 02:46:06;;;;;;;8.20;5.80;;;;;;;;;;5071539;28;20409;-60
2022/05/21 02:48:32;;;;;;;9.33;5.87;;;;;;;;;;5071524;28;20427;-58
2022/05/21 02:50:58;;;;;;;7.50;5.33;;;;;;;;;;5071057;28;20398;-59
2022/05/21 02:53:24;;;;;;;5.23;4.73;;;;;;;;;;5071618;28;20410;-59
2022/05/21 02:55:53;;;;;;;6.60;4.50;;;;;;;;;;5071616;28;20819;-56
2022/05/21 02:58:19;;;;;;;6.60;5.17;;;;;;;;;;5071586;28;20401;-59
2022/05/21 03:00:46;;;;;;;10.97;5.83;;;;;;;;;;5071105;28;20407;-62
2022/05/21 03:03:12;;;;;;;6.77;4.67;;;;;;;;;;5071665;28;20873;-58
2022/05/21 03:05:38;;;;;;;12.97;5.63;;;;;;;;;;5071441;28;20424;-58
2022/05/21 03:10:20;;;;;;;7.17;6.03;;;;;;;;;;5071430;28;20455;-57
2022/05/21 03:10:55;;;;;;;12.10;5.53;;;;;;;;;;5070815;28;20422;-56
2022/05/21 03:13:21;;;;;;;7.17;4.90;;;;;;;;;;5071514;28;20401;-57
2022/05/21 03:15:47;;;;;;;7.23;4.87;;;;;;;;;;5071354;28;20502;-57
2022/05/21 03:18:14;;;;;;;8.50;5.67;;;;;;;;;;5071321;28;20411;-58
2022/05/21 03:20:41;;;;;;;6.30;5.70;;;;;;;;;;5071203;28;20481;-57
2022/05/21 03:23:07;;;;;;;9.63;5.27;;;;;;;;;;5070914;28;20894;-58
2022/05/21 03:25:33;;;;;;;11.03;6.87;;;;;;;;;;5071241;28;20818;-58
2022/05/21 03:27:59;;;;;;;10.30;6.80;;;;;;;;;;5071216;28;20448;-59
2022/05/21 03:30:27;;;;;;;13.90;7.47;;;;;;;;;;5071369;28;20480;-57
2022/05/21 03:32:53;;;;;;;12.20;7.40;;;;;;;;;;5070542;28;20401;-56
2022/05/21 03:35:19;;;;;;;8.37;6.47;;;;;;;;;;5071221;28;20492;-56
2022/05/21 03:37:46;;;;;;;9.70;7.57;;;;;;;;;;5071294;28;20658;-58
2022/05/21 03:40:17;;;;;;;15.80;8.67;;;;;;;;;;5071178;28;20432;-58
2022/05/21 03:42:43;;;;;;;15.63;9.30;;;;;;;;;;5070603;28;20411;-56
2022/05/21 03:45:10;;;;;;;16.60;8.83;;;;;;;;;;5074089;28;20490;-56
2022/05/21 03:47:38;;;;;;;13.93;9.27;;;;;;;;;;5074669;28;20823;-59
2022/05/21 03:50:04;;;;;;;13.47;9.40;;;;;;;;;;5074691;28;20474;-57
2022/05/21 03:52:31;;;;;;;19.10;8.60;;;;;;;;;;5073981;28;20893;-57
2022/05/21 03:54:57;;;;;;;15.57;7.93;;;;;;;;;;5074560;28;20511;-59
2022/05/21 03:57:23;;;;;;;17.20;8.23;;;;;;;;;;5074615;28;20436;-60
2022/05/21 03:59:49;;;;;;;13.97;8.97;;;;;;;;;;5074392;28;20419;-58
2022/05/21 04:02:15;;;;;;;9.57;8.07;;;;;;;;;;5073874;28;20505;-57
2022/05/21 04:04:41;;;;;;;16.70;8.27;;;;;;;;;;5074337;28;20424;-57
2022/05/21 04:07:07;;;;;;;15.63;9.07;;;;;;;;;;5074404;28;20442;-57
2022/05/21 04:09:33;;;;;;;11.70;9.57;;;;;;;;;;5074316;28;20882;-58
2022/05/21 04:11:59;;;;;;;14.73;10.80;;;;;;;;;;5073763;28;20405;-56
2022/05/21 04:14:27;;;;;;;12.20;9.63;;;;;;;;;;5074153;28;20417;-58
2022/05/21 04:16:57;;;;;;;16.23;10.20;;;;;;;;;;5074187;28;20408;-57
2022/05/21 04:19:23;;;;;;;16.60;9.70;;;;;;;;;;5074213;28;20424;-58
2022/05/21 04:21:49;;;;;;;14.07;10.70;;;;;;;;;;5073627;28;20871;-58
2022/05/21 04:24:16;;;;;;;20.00;11.13;;;;;;;;;;5074076;28;20790;-58
2022/05/21 04:26:42;;;;;;;14.53;10.50;;;;;;;;;;5074032;28;20425;-58
2022/05/21 04:29:09;;;;;;;26.67;10.47;;;;;;;;;;5073895;28;20398;-59
2022/05/21 04:31:35;;;;;;;16.60;10.53;;;;;;;;;;5073363;28;20916;-59
2022/05/21 04:34:01;;;;;;;17.23;11.50;;;;;;;;;;5073969;28;20452;-59
2022/05/21 04:36:27;;;;;;;12.90;9.77;;;;;;;;;;5073951;28;20888;-59
2022/05/21 04:38:54;;;;;;;16.13;10.20;;;;;;;;;;5073803;28;20423;-59
2022/05/21 04:41:20;;;;;;;18.57;10.40;;;;;;;;;;5073204;28;20489;-59
2022/05/21 04:43:47;;;;;;;13.93;9.10;;;;;;;;;;5073622;28;20407;-56
2022/05/21 04:46:15;;;;;;;15.90;9.87;;;;;;;;;;5073746;28;20417;-58
2022/05/21 04:48:41;;;;;;;13.73;9.70;;;;;;;;;;5073520;28;20482;-59
2022/05/21 04:51:07;;;;;;;18.03;9.70;;;;;;;;;;5073245;28;20414;-58
2022/05/21 04:53:33;;;;;;;13.77;9.43;;;;;;;;;;5073474;28;20419;-60
2022/05/21 04:56:01;;;;;;;20.13;9.77;;;;;;;;;;5072350;28;20455;-59
2022/05/21 04:58:27;;;;;;;16.00;11.87;;;;;;;;;;5072006;28;20465;-57
2022/05/21 05:00:53;;;;;;;14.73;9.30;;;;;;;;;;5072811;28;20497;-57
2022/05/21 05:03:19;;;;;;;13.03;9.80;;;;;;;;;;5073421;28;20491;-56
2022/05/21 05:05:46;;;;;;;17.43;10.30;;;;;;;;;;5073340;28;20504;-58
2022/05/21 05:08:13;;;;;;;16.30;9.07;;;;;;;;;;5073185;28;20527;-58
2022/05/21 05:10:39;;;;;;;12.10;8.73;;;;;;;;;;5073109;28;20886;-63
2022/05/21 05:13:05;;;;;;;13.77;9.53;;;;;;;;;;5072639;28;20505;-59
2022/05/21 05:15:32;;;;;;;16.80;10.30;;;;;;;;;;5073192;28;20913;-59
2022/05/21 05:17:59;;;;;;;17.67;9.80;;;;;;;;;;5073495;28;20413;-59
2022/05/21 05:20:25;;;;;;;15.93;9.80;;;;;;;;;;5073145;28;20408;-58
2022/05/21 05:22:51;;;;;;;13.50;8.80;;;;;;;;;;5072949;28;20870;-59
2022/05/21 05:25:17;;;;;;;16.83;10.87;;;;;;;;;;5073494;28;20421;-59
2022/05/21 05:27:43;;;;;;;15.37;10.10;;;;;;;;;;5074100;28;20960;-59
2022/05/21 05:30:10;;;;;;;14.43;10.00;;;;;;;;;;5074257;28;20406;-59
2022/05/21 05:32:35;;;;;;;17.73;9.53;;;;;;;;;;5072817;28;20406;-59
2022/05/21 05:35:02;;;;;;;12.80;8.60;;;;;;;;;;5073320;28;20425;-59
2022/05/21 05:37:28;;;;;;;14.03;9.50;;;;;;;;;;5073605;28;20397;-59
2022/05/21 05:39:58;;;;;;;15.37;8.73;;;;;;;;;;5073030;28;20411;-59
2022/05/21 05:42:24;;;;;;;15.53;9.37;;;;;;;;;;5072587;28;20414;-59
2022/05/21 05:44:49;;;;;;;15.53;8.80;;;;;;;;;;5072864;28;20516;-59
2022/05/21 05:47:16;;;;;;;13.60;9.63;;;;;;;;;;5073124;28;20489;-58
2022/05/21 05:49:41;;;;;;;10.63;8.23;;;;;;;;;;5072448;28;20418;-58
2022/05/21 05:52:08;;;;;;;14.20;8.07;;;;;;;;;;5070663;28;20427;-57
2022/05/21 05:54:35;;;;;;;12.63;7.53;;;;;;;;;;5071147;28;20410;-55
2022/05/21 05:57:01;;;;;;;9.80;6.80;;;;;;;;;;5072607;28;20490;-58
2022/05/21 06:04:56;;;;;;;14.27;7.50;;;;;;;;;;5072849;28;20466;-58
2022/05/21 06:07:22;;;;;;;8.90;6.50;;;;;;;;;;5069632;28;20451;-55
2022/05/21 06:09:49;;;;;;;14.23;6.83;;;;;;;;;;5070534;28;20416;-56
2022/05/21 06:12:15;;;;;;;16.77;6.60;;;;;;;;;;5070947;28;20410;-58
2022/05/21 06:14:41;;;;;;;14.87;6.50;;;;;;;;;;5071889;28;20461;-57
2022/05/21 06:17:07;;;;;;;8.60;6.70;;;;;;;;;;5071390;28;20410;-57
2022/05/21 06:19:34;;;;;;;8.63;6.23;;;;;;;;;;5071560;28;20418;-58
2022/05/21 06:22:00;;;;;;;12.27;7.27;;;;;;;;;;5070737;28;20414;-57
2022/05/21 06:24:26;;;;;;;9.83;6.47;;;;;;;;;;5071418;28;20454;-57
2022/05/21 06:26:52;;;;;;;8.10;7.13;;;;;;;;;;5071404;28;20447;-56
2022/05/21 06:29:18;;;;;;;12.50;6.37;;;;;;;;;;5071417;28;20408;-57
2022/05/21 06:31:44;;;;;;;12.40;7.33;;;;;;;;;;5070929;28;20379;-55
2022/05/21 06:34:10;;;;;;;12.80;7.33;;;;;;;;;;5071131;28;20914;-55
2022/05/21 06:36:36;;;;;;;10.30;7.43;;;;;;;;;;5060033;28;20906;-56
2022/05/21 06:39:03;;;;;;;9.47;7.23;;;;;;;;;;5049779;28;20461;-56
2022/05/21 06:41:31;;;;;;;9.20;7.90;;;;;;;;;;5050739;28;20411;-55
2022/05/21 06:43:57;;;;;;;7.57;6.77;;;;;;;;;;5051238;28;20400;-56
2022/05/21 06:46:24;;;;;;;15.53;8.27;;;;;;;;;;5051228;28;20403;-57
2022/05/21 06:48:50;;;;;;;11.43;8.00;;;;;;;;;;5066262;28;20463;-57
2022/05/21 06:51:15;;;;;;;14.30;7.00;;;;;;;;;;5051122;28;20973;-57
2022/05/21 06:53:42;;;;;;;10.33;7.87;;;;;;;;;;5051278;28;20410;-56
2022/05/21 06:56:13;;;;;;;11.80;8.23;;;;;;;;;;5051006;28;20413;-58
2022/05/21 06:58:39;;;;;;;9.20;6.90;;;;;;;;;;5052271;28;20414;-58
2022/05/21 07:01:05;;;;;;;14.00;7.53;;;;;;;;;;5051985;28;20396;-58
2022/05/21 07:03:31;;;;;;;8.87;7.90;;;;;;;;;;5051772;28;20401;-57
2022/05/21 07:08:42;;;;;;;18.37;7.73;;;;;;;;;;5051300;28;20826;-57
2022/05/21 07:11:08;;;;;;;12.80;7.63;;;;;;;;;;5050879;28;20405;-56
2022/05/21 07:13:34;;;;;;;18.93;8.07;;;;;;;;;;5051331;28;20462;-57
2022/05/21 07:16:00;;;;;;;11.27;7.27;;;;;;;;;;5051389;28;20404;-57
2022/05/21 07:18:29;;;;;;;11.70;7.10;;;;;;;;;;5051842;28;20421;-56
2022/05/21 07:20:56;;;;;;;10.87;6.73;;;;;;;;;;5054753;28;20432;-57
2022/05/21 07:23:23;;;;;;;11.40;6.40;;;;;;;;;;5055153;28;20426;-57
2022/05/21 07:25:49;;;;;;;10.47;7.10;;;;;;;;;;5055089;28;20932;-56
2022/05/21 07:28:15;;;;;;;13.93;7.20;;;;;;;;;;5055049;28;20447;-56
2022/05/21 07:30:42;;;;;;;13.40;7.53;;;;;;;;;;5054982;28;20801;-56
2022/05/21 07:33:10;;;;;;;13.70;6.53;;;;;;;;;;5054281;28;20490;-55
2022/05/21 07:35:37;;;;;;;13.43;6.57;;;;;;;;;;5054982;28;20441;-57
2022/05/21 07:38:04;;;;;;;10.37;7.70;;;;;;;;;;5054979;28;20374;-57
2022/05/21 07:40:30;;;;;;;16.33;6.90;;;;;;;;;;5053700;28;20410;-57
2022/05/21 07:42:56;;;;;;;11.50;6.80;;;;;;;;;;5069674;28;20527;-57
2022/05/21 07:45:22;;;;;;;16.00;6.87;;;;;;;;;;5054824;28;20916;-57
2022/05/21 07:47:52;;;;;;;10.57;6.90;;;;;;;;;;5054865;28;20951;-57
2022/05/21 07:50:20;;;;;;;10.87;7.63;;;;;;;;;;5054709;28;20438;-55
2022/05/21 07:52:46;;;;;;;11.00;6.70;;;;;;;;;;5054227;28;20985;-55
2022/05/21 07:55:13;;;;;;;16.63;7.33;;;;;;;;;;5054627;28;20439;-57
2022/05/21 07:57:39;;;;;;;8.73;6.60;;;;;;;;;;5054594;28;20461;-57
2022/05/21 08:00:07;;;;;;;13.33;9.23;;;;;;;;;;5054686;28;20911;-56
2022/05/21 08:02:33;;;;;;;16.70;11.43;;;;;;;;;;5054065;28;20408;-56
2022/05/21 08:05:00;;;;;;;12.13;7.63;;;;;;;;;;5054466;28;20421;-56
2022/05/21 08:07:26;;;;;;;14.43;8.03;;;;;;;;;;5054486;28;20512;-57
2022/05/21 08:09:52;;;;;;;14.77;8.70;;;;;;;;;;5054378;28;20494;-57
2022/05/21 08:12:18;;;;;;;13.33;8.50;;;;;;;;;;5053748;28;20777;-57
2022/05/21 08:14:44;;;;;;;15.50;7.93;;;;;;;;;;5054369;28;20997;-57
2022/05/21 08:17:10;;;;;;;13.53;8.80;;;;;;;;;;5054473;28;20405;-56
2022/05/21 08:19:37;;;;;;;14.97;9.43;;;;;;;;;;5054325;28;20494;-57
2022/05/21 08:27:32;;;;;;;15.20;8.37;;;;;;;;;;5054071;28;20995;-55
2022/05/21 08:29:58;;;;;;;19.57;9.10;;;;;;;;;;5053892;28;20406;-56
2022/05/21 08:32:24;;;;;;;15.47;10.03;;;;;;;;;;5053515;28;20873;-55
2022/05/21 08:34:52;;;;;;;17.17;9.20;;;;;;;;;;5053926;28;20424;-55
2022/05/21 08:37:18;;;;;;;14.53;9.33;;;;;;;;;;5058105;28;20425;-57
2022/05/21 08:39:44;;;;;;;17.60;8.83;;;;;;;;;;5069863;28;20419;-56
2022/05/21 08:42:14;;;;;;;13.87;8.07;;;;;;;;;;5072942;28;20412;-57
2022/05/21 08:44:46;;;;;;;18.53;8.20;;;;;;;;;;5074355;28;20412;-58
2022/05/21 08:47:15;;;;;;;17.97;9.10;;;;;;;;;;5074565;28;20519;-58
2022/05/21 08:49:41;;;;;;;14.77;8.27;;;;;;;;;;5074062;28;20379;-56
2022/05/21 08:52:22;;;;;;;16.07;8.47;;;;;;;;;;5073080;28;20416;-56
2022/05/21 08:54:50;;;;;;;13.20;8.57;;;;;;;;;;5073303;28;20410;-58
2022/05/21 08:57:17;;;;;;;10.63;7.70;;;;;;;;;;5073676;28;20398;-57
2022/05/21 08:59:47;;;;;;;13.33;8.27;;;;;;;;;;5073738;28;20431;-58
2022/05/21 09:02:18;;;;;;;15.57;8.90;;;;;;;;;;5073267;28;20400;-58
2022/05/21 09:04:44;;;;;;;15.03;9.60;;;;;;;;;;5073536;28;20472;-58
2022/05/21 09:07:15;;;;;;;14.83;9.23;;;;;;;;;;5072391;28;20947;-57
2022/05/21 09:09:59;;;;;;;15.40;9.17;;;;;;;;;;5071395;28;20456;-57
2022/05/21 09:12:30;;;;;;;10.87;7.53;;;;;;;;;;5072897;28;20439;-58
2022/05/21 09:14:59;;;;;;;17.70;8.27;;;;;;;;;;5072963;28;20440;-57
2022/05/21 09:17:25;;;;;;;14.30;7.67;;;;;;;;;;5071498;28;20472;-56
2022/05/21 09:19:55;;;;;;;13.53;7.93;;;;;;;;;;5073064;28;20826;-56
2022/05/21 09:22:22;;;;;;;11.43;8.37;;;;;;;;;;5072271;28;20495;-56
2022/05/21 09:24:58;;;;;;;12.30;7.53;;;;;;;;;;5072630;28;20472;-56
2022/05/21 09:27:38;;;;;;;16.33;7.70;;;;;;;;;;5073125;28;20509;-58
2022/05/21 09:30:14;;;;;;;17.33;8.97;;;;;;;;;;5073301;28;20399;-58
2022/05/21 09:32:40;;;;;;;12.97;8.03;;;;;;;;;;5072797;28;20499;-57
2022/05/21 09:35:06;;;;;;;17.10;7.90;;;;;;;;;;5073308;28;20414;-58
2022/05/21 09:37:33;;;;;;;11.80;8.20;;;;;;;;;;5073099;28;20420;-58
2022/05/21 09:39:59;;;;;;;15.00;8.40;;;;;;;;;;5073480;28;20490;-57
2022/05/21 09:45:22;;;;;;;16.50;10.00;;;;;;;;;;5072775;28;20482;-57
2022/05/21 09:47:49;;;;;;;16.43;10.17;;;;;;;;;;5072180;28;20415;-57
2022/05/21 09:50:20;;;;;;;12.67;9.70;;;;;;;;;;5072469;28;20388;-60
2022/05/21 09:52:47;;;;;;;16.27;8.77;;;;;;;;;;5071448;28;20433;-57
2022/05/21 09:55:19;;;;;;;15.90;9.47;;;;;;;;;;5071016;28;20418;-57
2022/05/21 09:57:45;;;;;;;17.17;8.97;;;;;;;;;;5070907;28;20951;-57
2022/05/21 10:00:24;;;;;;;16.77;8.93;;;;;;;;;;5072141;28;20930;-57
2022/05/21 10:02:51;;;;;;;11.30;7.70;;;;;;;;;;5070621;28;20418;-57
2022/05/21 10:05:38;;;;;;;9.43;8.23;;;;;;;;;;5070532;28;20486;-58
2022/05/21 10:10:58;;;;;;;12.03;7.70;;;;;;;;;;5070225;28;20947;-58
2022/05/21 10:13:25;;;;;;;16.57;8.13;;;;;;;;;;5071791;28;20466;-58
2022/05/21 10:16:06;;;;;;;10.40;7.30;;;;;;;;;;5071754;28;20766;-58
2022/05/21 10:18:41;;;;;;;15.03;6.77;;;;;;;;;;5068182;28;20423;-58
2022/05/21 10:21:30;;;;;;;13.93;7.80;;;;;;;;;;5071294;28;20403;-58
2022/05/21 10:24:01;;;;;;;7.90;6.33;;;;;;;;;;5051887;28;20424;-57
2022/05/21 10:26:39;;;;;;;12.17;6.60;;;;;;;;;;5054817;28;20500;-58
2022/05/21 10:29:24;;;;;;;9.03;6.23;;;;;;;;;;5071947;28;20419;-59
2022/05/21 10:32:05;;;;;;;12.63;6.43;;;;;;;;;;5071080;28;20706;-58
2022/05/21 10:34:54;;;;;;;11.53;7.17;;;;;;;;;;5071873;28;20415;-58
2022/05/21 10:37:39;;;;;;;9.57;5.53;;;;;;;;;;5069139;28;20420;-58
2022/05/21 10:40:07;;;;;;;10.90;6.70;;;;;;;;;;5071623;28;20877;-58
2022/05/21 10:42:42;;;;;;;14.90;6.80;;;;;;;;;;5071043;28;20405;-58
2022/05/21 10:45:11;;;;;;;12.67;7.00;;;;;;;;;;5071665;28;20408;-58
2022/05/21 10:47:55;;;;;;;9.70;6.50;;;;;;;;;;5071364;28;20448;-58
2022/05/21 10:50:25;;;;;;;11.23;7.13;;;;;;;;;;5071561;28;20411;-58
2022/05/21 10:52:54;;;;;;;14.43;7.47;;;;;;;;;;5070893;28;20423;-58
2022/05/21 10:55:23;;;;;;;11.93;6.10;;;;;;;;;;5075335;28;20436;-58
2022/05/21 10:58:09;;;;;;;10.37;6.57;;;;;;;;;;5075723;28;20826;-59
2022/05/21 11:01:01;;;;;;;8.40;5.43;;;;;;;;;;5075737;28;20766;-59
2022/05/21 11:03:41;;;;;;;6.27;4.40;;;;;;;;;;5072470;28;20431;-60
2022/05/21 11:06:25;;;;;;;6.63;4.90;;;;;;;;;;5075633;28;20411;-60
2022/05/21 11:09:02;;;;;;;10.50;5.77;;;;;;;;;;5075804;28;20451;-58
2022/05/21 11:11:28;;;;;;;7.93;5.30;;;;;;;;;;5075134;28;20481;-58
2022/05/21 11:14:05;;;;;;;6.73;5.40;;;;;;;;;;5075365;28;20435;-58
2022/05/21 11:16:36;;;;;;;15.50;5.73;;;;;;;;;;5075500;28;20396;-58
2022/05/21 11:19:06;;;;;;;22.20;6.70;;;;;;;;;;5075271;28;20408;-58
2022/05/21 11:21:37;;;;;;;10.20;6.67;;;;;;;;;;5074739;28;20444;-58
2022/05/21 11:24:05;;;;;;;13.93;6.00;;;;;;;;;;5075106;28;20454;-58
2022/05/21 11:26:34;;;;;;;7.37;5.63;;;;;;;;;;5075430;28;20524;-58
2022/05/21 11:29:17;;;;;;;14.40;5.33;;;;;;;;;;5074982;28;20473;-58
2022/05/21 11:37:21;;;;;;;9.30;5.17;;;;;;;;;;5074847;28;20473;-57
2022/05/21 11:39:47;;;;;;;12.50;5.20;;;;;;;;;;5074928;28;20392;-57
2022/05/21 11:42:16;;;;;;;9.13;4.80;;;;;;;;;;5074790;28;20404;-57
2022/05/21 11:44:56;;;;;;;7.30;4.97;;;;;;;;;;5075006;28;20430;-57
2022/05/21 11:47:22;;;;;;;7.20;5.23;;;;;;;;;;5074607;28;20536;-57
2022/05/21 11:49:53;;;;;;;7.47;5.80;;;;;;;;;;5074773;28;20848;-57
2022/05/21 11:52:32;;;;;;;7.07;4.90;;;;;;;;;;5074055;28;20852;-58
2022/05/21 11:54:57;;;;;;;11.80;5.37;;;;;;;;;;5074678;28;20424;-57
2022/05/21 11:57:42;;;;;;;6.93;5.70;;;;;;;;;;5074361;28;20431;-57
2022/05/21 12:00:11;;;;;;;8.40;5.60;;;;;;;;;;5074326;28;20469;-57
2022/05/21 12:02:38;;;;;;;9.80;5.60;;;;;;;;;;5074252;28;20473;-57
2022/05/21 12:05:05;;;;;;;7.40;5.57;;;;;;;;;;5073848;28;20418;-58
2022/05/21 12:07:48;;;;;;;8.20;6.10;;;;;;;;;;5072733;28;20444;-58
2022/05/21 12:10:14;;;;;;;7.70;5.80;;;;;;;;;;5074383;28;20507;-58
2022/05/21 12:12:58;;;;;;;10.90;5.27;;;;;;;;;;5073936;28;20499;-58
2022/05/21 12:15:34;;;;;;;9.77;5.13;;;;;;;;;;5074279;28;20432;-58
2022/05/21 12:18:06;;;;;;;8.43;4.90;;;;;;;;;;5074093;28;20411;-58
2022/05/21 12:20:47;;;;;;;6.50;4.50;;;;;;;;;;5073964;28;20446;-57
2022/05/21 12:23:37;;;;;;;8.10;4.57;;;;;;;;;;5074184;28;20410;-57
2022/05/21 12:26:04;;;;;;;15.27;4.80;;;;;;;;;;5066915;28;20432;-57
2022/05/21 12:28:47;;;;;;;14.17;4.97;;;;;;;;;;5073172;28;20471;-58
2022/05/21 12:31:15;;;;;;;10.93;5.00;;;;;;;;;;5073498;28;20454;-57
2022/05/21 12:33:45;;;;;;;7.97;4.70;;;;;;;;;;5072692;28;20420;-58
2022/05/21 12:36:36;;;;;;;6.63;4.37;;;;;;;;;;5073712;28;20397;-59
2022/05/21 12:39:03;;;;;;;8.63;4.90;;;;;;;;;;5064654;28;20470;-58
2022/05/21 12:41:39;;;;;;;17.23;5.53;;;;;;;;;;5073590;28;20452;-59
2022/05/21 12:44:06;;;;;;;17.23;6.80;;;;;;;;;;5074519;28;20499;-59
2022/05/21 12:46:35;;;;;;;12.00;5.27;;;;;;;;;;5074018;28;20416;-58
2022/05/21 12:49:04;;;;;;;10.30;5.13;;;;;;;;;;5073806;28;20862;-59
2022/05/21 12:51:35;;;;;;;7.73;5.20;;;;;;;;;;5073571;28;20423;-59
2022/05/21 12:54:03;;;;;;;10.47;5.73;;;;;;;;;;5073457;28;20436;-59
2022/05/21 12:56:37;;;;;;;7.20;5.67;;;;;;;;;;5073713;28;20401;-59
2022/05/21 12:59:02;;;;;;;7.53;4.93;;;;;;;;;;5072987;28;20419;-59
2022/05/21 13:01:31;;;;;;;5.60;5.07;;;;;;;;;;5072878;28;20764;-60
2022/05/21 13:03:59;;;;;;;8.50;5.93;;;;;;;;;;5073139;28;20439;-59
2022/05/21 13:06:27;;;;;;;7.73;5.37;;;;;;;;;;5071911;28;20409;-59
2022/05/21 13:08:53;;;;;;;9.17;4.60;;;;;;;;;;5073073;28;21010;-58
2022/05/21 13:11:19;;;;;;;6.80;4.40;;;;;;;;;;5071989;28;20413;-58
2022/05/21 13:13:57;;;;;;;6.60;5.20;;;;;;;;;;5072477;28;20495;-58
2022/05/21 13:16:23;;;;;;;9.80;4.90;;;;;;;;;;5072876;28;20421;-58
2022/05/21 13:19:16;;;;;;;8.53;4.57;;;;;;;;;;5073911;28;20880;-58
2022/05/21 13:21:49;;;;;;;8.93;4.90;;;;;;;;;;5073157;28;20417;-58
2022/05/21 13:24:18;;;;;;;10.10;4.80;;;;;;;;;;5074082;28;20425;-58
2022/05/21 13:26:44;;;;;;;11.30;5.90;;;;;;;;;;5073459;28;20501;-58
2022/05/21 13:29:29;;;;;;;11.70;6.00;;;;;;;;;;5074257;28;20441;-58
2022/05/21 13:31:56;;;;;;;10.27;5.67;;;;;;;;;;5072871;28;20499;-58
2022/05/21 13:34:26;;;;;;;9.53;4.80;;;;;;;;;;5072954;28;20471;-58
2022/05/21 13:36:59;;;;;;;7.13;5.17;;;;;;;;;;5073517;28;20453;-59
2022/05/21 13:39:30;;;;;;;7.40;5.20;;;;;;;;;;5073500;28;20491;-58
2022/05/21 13:42:08;;;;;;;7.10;5.23;;;;;;;;;;5072243;28;20415;-58
2022/05/21 13:44:35;;;;;;;11.03;5.10;;;;;;;;;;5072756;28;20429;-58
2022/05/21 13:47:03;;;;;;;6.33;5.70;;;;;;;;;;5071757;28;20422;-58
2022/05/21 13:49:33;;;;;;;12.40;4.47;;;;;;;;;;5070936;28;20426;-58
2022/05/21 13:51:59;;;;;;;8.13;4.20;;;;;;;;;;5071195;28;20428;-58
2022/05/21 13:54:28;;;;;;;5.37;4.00;;;;;;;;;;5072425;28;20436;-59
2022/05/21 13:57:06;;;;;;;6.57;3.80;;;;;;;;;;5072329;28;20406;-58
2022/05/21 13:59:32;;;;;;;6.97;4.80;;;;;;;;;;5072359;28;20406;-58
2022/05/21 14:02:13;;;;;;;9.43;3.90;;;;;;;;;;5071715;28;20410;-58
2022/05/21 14:04:40;;;;;;;5.00;4.37;;;;;;;;;;5069395;28;20855;-58
2022/05/21 14:07:27;;;;;;;8.67;4.30;;;;;;;;;;5072503;28;20477;-58
2022/05/21 14:09:59;;;;;;;9.13;5.10;;;;;;;;;;5072664;28;20492;-58
2022/05/21 14:12:28;;;;;;;6.90;5.00;;;;;;;;;;5071812;28;20797;-58
2022/05/21 14:14:54;;;;;;;8.83;4.47;;;;;;;;;;5072911;28;20420;-58
2022/05/21 14:17:23;;;;;;;14.00;5.27;;;;;;;;;;5072423;28;20416;-58
2022/05/21 14:20:01;;;;;;;10.87;4.60;;;;;;;;;;5072661;28;20454;-58
2022/05/21 14:22:28;;;;;;;5.60;4.80;;;;;;;;;;5071780;28;20455;-58
2022/05/21 14:24:54;;;;;;;14.37;5.40;;;;;;;;;;5072417;28;20908;-58
2022/05/21 14:27:24;;;;;;;14.10;5.23;;;;;;;;;;5072046;28;20468;-58
2022/05/21 14:29:52;;;;;;;7.90;4.80;;;;;;;;;;5072355;28;20496;-58
2022/05/21 14:32:18;;;;;;;11.77;4.90;;;;;;;;;;5071326;28;20559;-57
2022/05/21 14:34:45;;;;;;;13.43;5.20;;;;;;;;;;5071239;28;20443;-57
2022/05/21 14:37:24;;;;;;;7.50;4.83;;;;;;;;;;5071957;28;20431;-58
2022/05/21 14:39:51;;;;;;;9.07;4.77;;;;;;;;;;5071779;28;20404;-55
2022/05/21 14:42:17;;;;;;;6.07;4.50;;;;;;;;;;5071565;28;20426;-57
2022/05/21 14:44:43;;;;;;;7.03;4.70;;;;;;;;;;5071768;28;20432;-58
2022/05/21 14:52:49;;;;;;;6.30;5.07;;;;;;;;;;5071551;28;20422;-57
2022/05/21 14:52:52;;;;;;;11.03;5.33;;;;;;;;;;5071116;28;20434;-58
2022/05/21 14:55:19;;;;;;;12.47;6.63;;;;;;;;;;5071667;28;20494;-56
2022/05/21 14:57:45;;;;;;;13.73;4.93;;;;;;;;;;5071549;28;20411;-56
2022/05/21 15:00:11;;;;;;;8.57;5.83;;;;;;;;;;5071917;28;20411;-56
2022/05/21 15:02:37;;;;;;;10.50;4.77;;;;;;;;;;5071151;28;20426;-58
2022/05/21 15:05:04;;;;;;;5.10;4.60;;;;;;;;;;5071542;28;20420;-56
2022/05/21 15:07:30;;;;;;;7.93;4.93;;;;;;;;;;5071377;28;20459;-56
2022/05/21 15:09:56;;;;;;;11.50;5.00;;;;;;;;;;5071624;28;20403;-56
2022/05/21 15:12:22;;;;;;;7.90;5.07;;;;;;;;;;5071166;28;20896;-58
2022/05/21 15:14:49;;;;;;;16.40;5.00;;;;;;;;;;5071385;28;20511;-57